Terminal Aerodrome Forecast
Issued by NWS Wilmington, OH

Current Version | Previous Version | Text Only | Print | Product List | Glossary Off
Versions: 1 2 3 4 5 6 7 8 9 10 11 12 13 14 15 16 17 18 19 20 21 22 23 24 25 26 27

000
FTUS41 KILN 311400 AAA
TAFILN
TAF AMD
KILN 311454Z 3115/0112 20010KT 3SM -SHRA BR BKN009 OVC015
      TEMPO 3115/3116 1 1/2SM SHRA
     FM311600 20008KT P6SM -SHRA BKN015
     FM311800 20010KT P6SM VCTS BKN025CB
     FM312300 18006KT P6SM BKN050
     FM010700 21006KT 4SM BR BKN050
     FM011000 21005KT 2SM BR OVC015=

USA.gov is the U.S. government's official web portal to all federal, state and local government web resources and services.